sensor_id;sensor_type;location;lat;lon;timestamp;P1;durP1;ratioP1;P2;durP2;ratioP2
42742;SDS011;28397;44.552;-0.848;2023-09-19T00:00:26;9.63;;;3.30;;
42742;SDS011;28397;44.552;-0.848;2023-09-19T00:02:55;10.93;;;3.13;;
42742;SDS011;28397;44.552;-0.848;2023-09-19T00:05:22;9.20;;;2.53;;
42742;SDS011;28397;44.552;-0.848;2023-09-19T00:07:52;9.65;;;2.70;;
42742;SDS011;28397;44.552;-0.848;2023-09-19T00:10:22;11.82;;;3.15;;
42742;SDS011;28397;44.552;-0.848;2023-09-19T00:12:58;7.82;;;2.58;;
42742;SDS011;28397;44.552;-0.848;2023-09-19T00:15:25;11.80;;;2.90;;
42742;SDS011;28397;44.552;-0.848;2023-09-19T00:17:53;8.50;;;3.03;;
42742;SDS011;28397;44.552;-0.848;2023-09-19T00:20:20;13.48;;;3.05;;
42742;SDS011;28397;44.552;-0.848;2023-09-19T00:22:48;10.02;;;2.35;;
42742;SDS011;28397;44.552;-0.848;2023-09-19T00:25:17;12.63;;;3.28;;
42742;SDS011;28397;44.552;-0.848;2023-09-19T00:27:43;11.20;;;2.60;;
42742;SDS011;28397;44.552;-0.848;2023-09-19T00:30:10;9.80;;;3.30;;
42742;SDS011;28397;44.552;-0.848;2023-09-19T00:32:55;15.27;;;3.03;;
42742;SDS011;28397;44.552;-0.848;2023-09-19T00:35:21;10.48;;;3.00;;
42742;SDS011;28397;44.552;-0.848;2023-09-19T00:37:49;13.45;;;3.20;;
42742;SDS011;28397;44.552;-0.848;2023-09-19T00:40:15;11.60;;;3.60;;
42742;SDS011;28397;44.552;-0.848;2023-09-19T00:42:45;11.32;;;3.17;;
42742;SDS011;28397;44.552;-0.848;2023-09-19T00:45:12;10.82;;;3.20;;
42742;SDS011;28397;44.552;-0.848;2023-09-19T00:47:39;12.45;;;3.22;;
42742;SDS011;28397;44.552;-0.848;2023-09-19T00:50:07;9.32;;;3.13;;
42742;SDS011;28397;44.552;-0.848;2023-09-19T00:52:34;12.20;;;3.30;;
42742;SDS011;28397;44.552;-0.848;2023-09-19T00:55:04;13.95;;;3.50;;
42742;SDS011;28397;44.552;-0.848;2023-09-19T00:57:32;10.95;;;2.80;;
42742;SDS011;28397;44.552;-0.848;2023-09-19T00:59:59;13.90;;;3.15;;
42742;SDS011;28397;44.552;-0.848;2023-09-19T01:02:26;12.27;;;3.20;;
42742;SDS011;28397;44.552;-0.848;2023-09-19T01:04:54;10.73;;;2.95;;
42742;SDS011;28397;44.552;-0.848;2023-09-19T01:07:20;7.70;;;2.83;;
42742;SDS011;28397;44.552;-0.848;2023-09-19T01:09:47;9.68;;;3.03;;
42742;SDS011;28397;44.552;-0.848;2023-09-19T01:12:15;10.90;;;3.17;;
42742;SDS011;28397;44.552;-0.848;2023-09-19T01:14:45;12.15;;;3.08;;
42742;SDS011;28397;44.552;-0.848;2023-09-19T01:17:27;11.68;;;3.35;;
42742;SDS011;28397;44.552;-0.848;2023-09-19T01:31:19;9.70;;;2.88;;
42742;SDS011;28397;44.552;-0.848;2023-09-19T01:36:32;12.07;;;3.80;;
42742;SDS011;28397;44.552;-0.848;2023-09-19T01:39:01;10.77;;;3.00;;
42742;SDS011;28397;44.552;-0.848;2023-09-19T01:44:04;12.48;;;3.72;;
42742;SDS011;28397;44.552;-0.848;2023-09-19T01:46:34;10.73;;;2.92;;
42742;SDS011;28397;44.552;-0.848;2023-09-19T01:51:55;11.82;;;3.55;;
42742;SDS011;28397;44.552;-0.848;2023-09-19T01:54:40;10.83;;;3.00;;
42742;SDS011;28397;44.552;-0.848;2023-09-19T01:57:33;12.05;;;3.08;;
42742;SDS011;28397;44.552;-0.848;2023-09-19T02:00:06;11.02;;;3.15;;
42742;SDS011;28397;44.552;-0.848;2023-09-19T02:02:34;9.90;;;3.60;;
42742;SDS011;28397;44.552;-0.848;2023-09-19T02:05:02;9.98;;;3.45;;
42742;SDS011;28397;44.552;-0.848;2023-09-19T02:07:29;10.27;;;3.58;;
42742;SDS011;28397;44.552;-0.848;2023-09-19T02:09:57;8.68;;;3.00;;
42742;SDS011;28397;44.552;-0.848;2023-09-19T02:12:25;9.65;;;3.45;;
42742;SDS011;28397;44.552;-0.848;2023-09-19T02:14:52;8.55;;;2.53;;
42742;SDS011;28397;44.552;-0.848;2023-09-19T02:17:18;10.05;;;3.25;;
42742;SDS011;28397;44.552;-0.848;2023-09-19T02:19:44;9.30;;;2.95;;
42742;SDS011;28397;44.552;-0.848;2023-09-19T02:22:10;9.77;;;3.08;;
42742;SDS011;28397;44.552;-0.848;2023-09-19T02:24:36;9.13;;;2.95;;
42742;SDS011;28397;44.552;-0.848;2023-09-19T02:27:03;6.53;;;2.90;;
42742;SDS011;28397;44.552;-0.848;2023-09-19T02:29:31;10.80;;;3.10;;
42742;SDS011;28397;44.552;-0.848;2023-09-19T02:31:59;10.60;;;3.30;;
42742;SDS011;28397;44.552;-0.848;2023-09-19T02:34:26;11.43;;;3.00;;
42742;SDS011;28397;44.552;-0.848;2023-09-19T02:36:52;11.05;;;3.05;;
42742;SDS011;28397;44.552;-0.848;2023-09-19T02:39:20;10.50;;;3.38;;
42742;SDS011;28397;44.552;-0.848;2023-09-19T02:41:45;10.32;;;2.80;;
42742;SDS011;28397;44.552;-0.848;2023-09-19T02:44:11;9.02;;;2.90;;
42742;SDS011;28397;44.552;-0.848;2023-09-19T02:46:37;8.48;;;2.75;;
42742;SDS011;28397;44.552;-0.848;2023-09-19T02:49:03;7.70;;;2.80;;
42742;SDS011;28397;44.552;-0.848;2023-09-19T02:51:32;8.13;;;2.90;;
42742;SDS011;28397;44.552;-0.848;2023-09-19T02:54:01;8.82;;;2.83;;
42742;SDS011;28397;44.552;-0.848;2023-09-19T02:56:28;8.45;;;2.92;;
42742;SDS011;28397;44.552;-0.848;2023-09-19T02:58:55;7.93;;;2.90;;
42742;SDS011;28397;44.552;-0.848;2023-09-19T03:01:21;8.73;;;2.80;;
42742;SDS011;28397;44.552;-0.848;2023-09-19T03:03:47;9.98;;;3.05;;
42742;SDS011;28397;44.552;-0.848;2023-09-19T03:06:13;8.98;;;2.85;;
42742;SDS011;28397;44.552;-0.848;2023-09-19T03:08:39;9.25;;;3.22;;
42742;SDS011;28397;44.552;-0.848;2023-09-19T03:11:07;11.80;;;3.47;;
42742;SDS011;28397;44.552;-0.848;2023-09-19T03:13:35;7.72;;;3.00;;
42742;SDS011;28397;44.552;-0.848;2023-09-19T03:16:03;5.60;;;2.97;;
42742;SDS011;28397;44.552;-0.848;2023-09-19T03:18:31;9.30;;;3.20;;
42742;SDS011;28397;44.552;-0.848;2023-09-19T03:20:57;8.98;;;3.55;;
42742;SDS011;28397;44.552;-0.848;2023-09-19T03:23:25;11.10;;;3.53;;
42742;SDS011;28397;44.552;-0.848;2023-09-19T03:25:51;9.30;;;2.90;;
42742;SDS011;28397;44.552;-0.848;2023-09-19T03:28:17;9.23;;;3.42;;
42742;SDS011;28397;44.552;-0.848;2023-09-19T03:30:45;12.70;;;3.42;;
42742;SDS011;28397;44.552;-0.848;2023-09-19T03:33:11;10.48;;;3.70;;
42742;SDS011;28397;44.552;-0.848;2023-09-19T03:35:37;10.45;;;3.03;;
42742;SDS011;28397;44.552;-0.848;2023-09-19T03:38:05;7.57;;;2.70;;
42742;SDS011;28397;44.552;-0.848;2023-09-19T03:40:30;8.95;;;3.25;;
42742;SDS011;28397;44.552;-0.848;2023-09-19T03:42:56;11.73;;;3.67;;
42742;SDS011;28397;44.552;-0.848;2023-09-19T03:45:25;10.10;;;3.50;;
42742;SDS011;28397;44.552;-0.848;2023-09-19T03:47:50;8.45;;;3.00;;
42742;SDS011;28397;44.552;-0.848;2023-09-19T03:50:16;10.23;;;3.15;;
42742;SDS011;28397;44.552;-0.848;2023-09-19T03:52:45;9.00;;;3.15;;
42742;SDS011;28397;44.552;-0.848;2023-09-19T03:55:11;9.57;;;3.10;;
42742;SDS011;28397;44.552;-0.848;2023-09-19T03:57:37;9.80;;;2.83;;
42742;SDS011;28397;44.552;-0.848;2023-09-19T04:00:03;9.60;;;2.88;;
42742;SDS011;28397;44.552;-0.848;2023-09-19T04:02:39;10.50;;;3.10;;
42742;SDS011;28397;44.552;-0.848;2023-09-19T04:05:06;9.20;;;2.92;;
42742;SDS011;28397;44.552;-0.848;2023-09-19T04:07:32;8.40;;;2.78;;
42742;SDS011;28397;44.552;-0.848;2023-09-19T04:09:59;10.60;;;3.40;;
42742;SDS011;28397;44.552;-0.848;2023-09-19T04:12:25;10.55;;;3.30;;
42742;SDS011;28397;44.552;-0.848;2023-09-19T04:14:50;8.30;;;3.10;;
42742;SDS011;28397;44.552;-0.848;2023-09-19T04:17:16;11.40;;;3.33;;
42742;SDS011;28397;44.552;-0.848;2023-09-19T04:19:43;8.77;;;3.33;;
42742;SDS011;28397;44.552;-0.848;2023-09-19T04:22:10;12.25;;;3.38;;
42742;SDS011;28397;44.552;-0.848;2023-09-19T04:24:37;11.38;;;3.33;;
42742;SDS011;28397;44.552;-0.848;2023-09-19T04:27:03;7.70;;;3.08;;
42742;SDS011;28397;44.552;-0.848;2023-09-19T04:29:29;8.80;;;3.40;;
42742;SDS011;28397;44.552;-0.848;2023-09-19T04:31:55;7.00;;;3.20;;
42742;SDS011;28397;44.552;-0.848;2023-09-19T04:34:24;10.90;;;3.45;;
42742;SDS011;28397;44.552;-0.848;2023-09-19T04:36:50;9.13;;;3.13;;
42742;SDS011;28397;44.552;-0.848;2023-09-19T04:39:16;9.48;;;3.20;;
42742;SDS011;28397;44.552;-0.848;2023-09-19T04:41:42;8.18;;;3.20;;
42742;SDS011;28397;44.552;-0.848;2023-09-19T04:44:11;8.40;;;3.13;;
42742;SDS011;28397;44.552;-0.848;2023-09-19T04:46:37;7.82;;;3.55;;
42742;SDS011;28397;44.552;-0.848;2023-09-19T04:49:03;9.40;;;3.10;;
42742;SDS011;28397;44.552;-0.848;2023-09-19T04:51:28;11.25;;;3.25;;
42742;SDS011;28397;44.552;-0.848;2023-09-19T04:53:59;9.07;;;3.20;;
42742;SDS011;28397;44.552;-0.848;2023-09-19T04:56:25;8.02;;;2.97;;
42742;SDS011;28397;44.552;-0.848;2023-09-19T04:58:50;11.48;;;3.22;;
42742;SDS011;28397;44.552;-0.848;2023-09-19T05:01:16;9.35;;;3.40;;
42742;SDS011;28397;44.552;-0.848;2023-09-19T05:03:42;9.73;;;3.50;;
42742;SDS011;28397;44.552;-0.848;2023-09-19T05:06:09;7.65;;;3.10;;
42742;SDS011;28397;44.552;-0.848;2023-09-19T05:08:35;8.40;;;3.85;;
42742;SDS011;28397;44.552;-0.848;2023-09-19T05:11:04;8.35;;;3.58;;
42742;SDS011;28397;44.552;-0.848;2023-09-19T05:13:29;8.35;;;3.38;;
42742;SDS011;28397;44.552;-0.848;2023-09-19T05:15:59;6.53;;;3.55;;
42742;SDS011;28397;44.552;-0.848;2023-09-19T05:18:27;6.93;;;3.42;;
42742;SDS011;28397;44.552;-0.848;2023-09-19T05:20:53;8.85;;;3.50;;
42742;SDS011;28397;44.552;-0.848;2023-09-19T05:23:19;9.25;;;3.25;;
42742;SDS011;28397;44.552;-0.848;2023-09-19T05:25:46;7.30;;;3.10;;
42742;SDS011;28397;44.552;-0.848;2023-09-19T05:28:11;8.38;;;3.13;;
42742;SDS011;28397;44.552;-0.848;2023-09-19T05:30:40;8.90;;;3.08;;
42742;SDS011;28397;44.552;-0.848;2023-09-19T05:33:07;6.53;;;2.70;;
42742;SDS011;28397;44.552;-0.848;2023-09-19T05:35:34;9.00;;;2.78;;
42742;SDS011;28397;44.552;-0.848;2023-09-19T05:38:04;6.13;;;2.70;;
42742;SDS011;28397;44.552;-0.848;2023-09-19T05:40:33;9.63;;;3.00;;
42742;SDS011;28397;44.552;-0.848;2023-09-19T05:43:00;6.90;;;2.95;;
42742;SDS011;28397;44.552;-0.848;2023-09-19T05:45:27;9.27;;;2.70;;
42742;SDS011;28397;44.552;-0.848;2023-09-19T05:47:53;9.30;;;2.83;;
42742;SDS011;28397;44.552;-0.848;2023-09-19T05:50:29;4.93;;;2.83;;
42742;SDS011;28397;44.552;-0.848;2023-09-19T05:52:55;8.35;;;3.08;;
42742;SDS011;28397;44.552;-0.848;2023-09-19T05:55:23;7.47;;;2.80;;
42742;SDS011;28397;44.552;-0.848;2023-09-19T05:57:53;8.23;;;3.30;;
42742;SDS011;28397;44.552;-0.848;2023-09-19T06:00:22;8.90;;;3.20;;
42742;SDS011;28397;44.552;-0.848;2023-09-19T06:02:52;8.30;;;3.30;;
42742;SDS011;28397;44.552;-0.848;2023-09-19T06:05:19;10.43;;;3.35;;
42742;SDS011;28397;44.552;-0.848;2023-09-19T06:07:45;10.73;;;3.38;;
42742;SDS011;28397;44.552;-0.848;2023-09-19T06:10:12;11.70;;;3.90;;
42742;SDS011;28397;44.552;-0.848;2023-09-19T06:12:38;9.93;;;3.65;;
42742;SDS011;28397;44.552;-0.848;2023-09-19T06:15:05;7.15;;;3.25;;
42742;SDS011;28397;44.552;-0.848;2023-09-19T06:17:33;10.18;;;3.25;;
42742;SDS011;28397;44.552;-0.848;2023-09-19T06:20:03;9.50;;;3.20;;
42742;SDS011;28397;44.552;-0.848;2023-09-19T06:22:40;9.30;;;3.25;;
42742;SDS011;28397;44.552;-0.848;2023-09-19T06:25:07;11.52;;;3.55;;
42742;SDS011;28397;44.552;-0.848;2023-09-19T06:27:40;8.63;;;3.42;;
42742;SDS011;28397;44.552;-0.848;2023-09-19T06:30:09;10.75;;;3.25;;
42742;SDS011;28397;44.552;-0.848;2023-09-19T06:32:39;9.48;;;3.40;;
42742;SDS011;28397;44.552;-0.848;2023-09-19T06:35:09;10.38;;;3.50;;
42742;SDS011;28397;44.552;-0.848;2023-09-19T06:37:39;12.27;;;4.00;;
42742;SDS011;28397;44.552;-0.848;2023-09-19T06:40:09;12.35;;;3.60;;
42742;SDS011;28397;44.552;-0.848;2023-09-19T06:43:00;16.88;;;4.15;;
42742;SDS011;28397;44.552;-0.848;2023-09-19T06:45:27;17.75;;;4.15;;
42742;SDS011;28397;44.552;-0.848;2023-09-19T06:47:53;17.30;;;4.40;;
42742;SDS011;28397;44.552;-0.848;2023-09-19T06:50:22;14.05;;;4.70;;
42742;SDS011;28397;44.552;-0.848;2023-09-19T06:52:49;13.27;;;4.00;;
42742;SDS011;28397;44.552;-0.848;2023-09-19T06:55:16;11.43;;;3.63;;
42742;SDS011;28397;44.552;-0.848;2023-09-19T06:57:44;10.38;;;3.67;;
42742;SDS011;28397;44.552;-0.848;2023-09-19T07:00:13;12.85;;;3.97;;
42742;SDS011;28397;44.552;-0.848;2023-09-19T07:03:05;10.07;;;3.40;;
42742;SDS011;28397;44.552;-0.848;2023-09-19T07:05:36;14.48;;;4.15;;
42742;SDS011;28397;44.552;-0.848;2023-09-19T07:08:04;8.70;;;3.50;;
42742;SDS011;28397;44.552;-0.848;2023-09-19T07:10:36;11.32;;;3.67;;
42742;SDS011;28397;44.552;-0.848;2023-09-19T07:15:28;8.30;;;3.30;;
42742;SDS011;28397;44.552;-0.848;2023-09-19T07:17:58;12.02;;;3.97;;
42742;SDS011;28397;44.552;-0.848;2023-09-19T07:20:25;11.52;;;3.58;;
42742;SDS011;28397;44.552;-0.848;2023-09-19T07:22:52;9.85;;;3.50;;
42742;SDS011;28397;44.552;-0.848;2023-09-19T07:25:20;11.25;;;3.30;;
42742;SDS011;28397;44.552;-0.848;2023-09-19T07:27:46;13.18;;;3.40;;
42742;SDS011;28397;44.552;-0.848;2023-09-19T07:30:12;10.02;;;3.22;;
42742;SDS011;28397;44.552;-0.848;2023-09-19T07:32:38;9.07;;;2.90;;
42742;SDS011;28397;44.552;-0.848;2023-09-19T07:35:06;10.35;;;3.47;;
42742;SDS011;28397;44.552;-0.848;2023-09-19T07:37:32;9.90;;;3.00;;
42742;SDS011;28397;44.552;-0.848;2023-09-19T07:40:04;10.18;;;2.80;;
42742;SDS011;28397;44.552;-0.848;2023-09-19T07:42:39;7.85;;;2.80;;
42742;SDS011;28397;44.552;-0.848;2023-09-19T07:45:06;8.55;;;2.97;;
42742;SDS011;28397;44.552;-0.848;2023-09-19T07:47:33;9.60;;;3.05;;
42742;SDS011;28397;44.552;-0.848;2023-09-19T07:49:59;9.57;;;2.63;;
42742;SDS011;28397;44.552;-0.848;2023-09-19T07:52:28;11.00;;;2.95;;
42742;SDS011;28397;44.552;-0.848;2023-09-19T07:54:54;15.27;;;5.53;;
42742;SDS011;28397;44.552;-0.848;2023-09-19T07:57:22;11.38;;;3.92;;
42742;SDS011;28397;44.552;-0.848;2023-09-19T07:59:48;16.90;;;6.40;;
42742;SDS011;28397;44.552;-0.848;2023-09-19T08:02:13;14.98;;;5.50;;
42742;SDS011;28397;44.552;-0.848;2023-09-19T08:04:43;11.75;;;4.00;;
42742;SDS011;28397;44.552;-0.848;2023-09-19T08:07:11;11.93;;;4.57;;
42742;SDS011;28397;44.552;-0.848;2023-09-19T08:09:38;13.85;;;4.05;;
42742;SDS011;28397;44.552;-0.848;2023-09-19T08:12:04;12.68;;;3.85;;
42742;SDS011;28397;44.552;-0.848;2023-09-19T08:14:35;11.20;;;3.55;;
42742;SDS011;28397;44.552;-0.848;2023-09-19T08:17:01;29.92;;;9.38;;
42742;SDS011;28397;44.552;-0.848;2023-09-19T08:19:27;31.38;;;9.32;;
42742;SDS011;28397;44.552;-0.848;2023-09-19T08:21:59;20.08;;;7.28;;
42742;SDS011;28397;44.552;-0.848;2023-09-19T08:24:28;18.00;;;6.35;;
42742;SDS011;28397;44.552;-0.848;2023-09-19T08:26:55;17.95;;;5.55;;
42742;SDS011;28397;44.552;-0.848;2023-09-19T08:29:21;12.27;;;4.30;;
42742;SDS011;28397;44.552;-0.848;2023-09-19T08:31:55;12.55;;;4.40;;
42742;SDS011;28397;44.552;-0.848;2023-09-19T08:34:22;12.07;;;3.97;;
42742;SDS011;28397;44.552;-0.848;2023-09-19T08:36:55;14.60;;;4.05;;
42742;SDS011;28397;44.552;-0.848;2023-09-19T08:39:23;10.80;;;2.72;;
42742;SDS011;28397;44.552;-0.848;2023-09-19T08:41:56;9.23;;;2.90;;
42742;SDS011;28397;44.552;-0.848;2023-09-19T08:44:24;13.25;;;3.40;;
42742;SDS011;28397;44.552;-0.848;2023-09-19T08:46:50;11.00;;;2.97;;
42742;SDS011;28397;44.552;-0.848;2023-09-19T08:49:24;6.75;;;2.50;;
42742;SDS011;28397;44.552;-0.848;2023-09-19T08:52:01;10.40;;;2.78;;
42742;SDS011;28397;44.552;-0.848;2023-09-19T08:54:37;8.85;;;2.58;;
42742;SDS011;28397;44.552;-0.848;2023-09-19T08:57:05;9.02;;;2.80;;
42742;SDS011;28397;44.552;-0.848;2023-09-19T08:59:39;7.05;;;2.60;;
42742;SDS011;28397;44.552;-0.848;2023-09-19T09:02:16;11.93;;;3.20;;
42742;SDS011;28397;44.552;-0.848;2023-09-19T09:04:44;9.13;;;2.92;;
42742;SDS011;28397;44.552;-0.848;2023-09-19T09:07:12;7.43;;;2.67;;
42742;SDS011;28397;44.552;-0.848;2023-09-19T09:09:39;10.18;;;3.25;;
42742;SDS011;28397;44.552;-0.848;2023-09-19T09:12:12;8.13;;;3.30;;
42742;SDS011;28397;44.552;-0.848;2023-09-19T09:14:39;8.13;;;2.70;;
42742;SDS011;28397;44.552;-0.848;2023-09-19T09:17:06;12.52;;;2.97;;
42742;SDS011;28397;44.552;-0.848;2023-09-19T09:19:32;6.95;;;2.70;;
42742;SDS011;28397;44.552;-0.848;2023-09-19T09:22:11;9.13;;;2.78;;
42742;SDS011;28397;44.552;-0.848;2023-09-19T09:24:37;5.93;;;2.35;;
42742;SDS011;28397;44.552;-0.848;2023-09-19T09:27:15;5.03;;;2.30;;
42742;SDS011;28397;44.552;-0.848;2023-09-19T09:29:43;6.15;;;2.53;;
42742;SDS011;28397;44.552;-0.848;2023-09-19T09:34:45;6.80;;;2.75;;
42742;SDS011;28397;44.552;-0.848;2023-09-19T09:37:14;7.00;;;2.30;;
42742;SDS011;28397;44.552;-0.848;2023-09-19T09:39:40;8.13;;;2.95;;
42742;SDS011;28397;44.552;-0.848;2023-09-19T09:42:29;6.75;;;2.50;;
42742;SDS011;28397;44.552;-0.848;2023-09-19T09:47:45;7.35;;;2.50;;
42742;SDS011;28397;44.552;-0.848;2023-09-19T09:50:26;10.15;;;3.38;;
42742;SDS011;28397;44.552;-0.848;2023-09-19T09:53:29;5.70;;;2.22;;
42742;SDS011;28397;44.552;-0.848;2023-09-19T09:56:00;8.18;;;2.40;;
42742;SDS011;28397;44.552;-0.848;2023-09-19T09:58:27;6.80;;;2.50;;
42742;SDS011;28397;44.552;-0.848;2023-09-19T10:00:57;7.90;;;2.28;;
42742;SDS011;28397;44.552;-0.848;2023-09-19T10:03:33;5.90;;;2.10;;
42742;SDS011;28397;44.552;-0.848;2023-09-19T10:06:12;9.65;;;2.55;;
42742;SDS011;28397;44.552;-0.848;2023-09-19T10:11:46;6.13;;;2.40;;
42742;SDS011;28397;44.552;-0.848;2023-09-19T10:14:19;8.27;;;2.50;;
42742;SDS011;28397;44.552;-0.848;2023-09-19T10:16:49;6.53;;;2.38;;
42742;SDS011;28397;44.552;-0.848;2023-09-19T10:19:16;5.32;;;2.63;;
42742;SDS011;28397;44.552;-0.848;2023-09-19T10:22:01;6.22;;;2.60;;
42742;SDS011;28397;44.552;-0.848;2023-09-19T10:24:29;6.70;;;2.40;;
42742;SDS011;28397;44.552;-0.848;2023-09-19T10:26:56;5.75;;;2.17;;
42742;SDS011;28397;44.552;-0.848;2023-09-19T10:29:22;6.03;;;2.00;;
42742;SDS011;28397;44.552;-0.848;2023-09-19T10:31:50;4.82;;;2.00;;
42742;SDS011;28397;44.552;-0.848;2023-09-19T10:34:18;5.13;;;2.28;;
42742;SDS011;28397;44.552;-0.848;2023-09-19T10:36:45;6.13;;;2.55;;
42742;SDS011;28397;44.552;-0.848;2023-09-19T10:39:15;5.97;;;2.08;;
42742;SDS011;28397;44.552;-0.848;2023-09-19T10:41:49;6.13;;;2.55;;
42742;SDS011;28397;44.552;-0.848;2023-09-19T10:44:23;7.60;;;2.45;;
42742;SDS011;28397;44.552;-0.848;2023-09-19T10:46:53;6.68;;;2.50;;
42742;SDS011;28397;44.552;-0.848;2023-09-19T10:49:20;8.48;;;2.53;;
42742;SDS011;28397;44.552;-0.848;2023-09-19T10:51:50;5.85;;;2.38;;
42742;SDS011;28397;44.552;-0.848;2023-09-19T10:54:20;6.40;;;2.30;;
42742;SDS011;28397;44.552;-0.848;2023-09-19T10:56:51;6.47;;;2.40;;
42742;SDS011;28397;44.552;-0.848;2023-09-19T10:59:19;4.65;;;2.20;;
42742;SDS011;28397;44.552;-0.848;2023-09-19T11:01:49;6.10;;;2.55;;
42742;SDS011;28397;44.552;-0.848;2023-09-19T11:04:26;6.68;;;2.20;;
42742;SDS011;28397;44.552;-0.848;2023-09-19T11:07:07;5.25;;;2.30;;
42742;SDS011;28397;44.552;-0.848;2023-09-19T11:14:57;4.72;;;1.92;;
42742;SDS011;28397;44.552;-0.848;2023-09-19T11:17:33;6.32;;;2.22;;
42742;SDS011;28397;44.552;-0.848;2023-09-19T11:30:46;9.27;;;2.45;;
42742;SDS011;28397;44.552;-0.848;2023-09-19T11:33:19;5.68;;;2.30;;
42742;SDS011;28397;44.552;-0.848;2023-09-19T11:43:46;6.32;;;2.15;;
42742;SDS011;28397;44.552;-0.848;2023-09-19T11:46:16;5.28;;;2.13;;
42742;SDS011;28397;44.552;-0.848;2023-09-19T11:48:49;5.75;;;2.10;;
42742;SDS011;28397;44.552;-0.848;2023-09-19T11:51:17;5.45;;;2.10;;
42742;SDS011;28397;44.552;-0.848;2023-09-19T11:53:45;6.00;;;2.20;;
42742;SDS011;28397;44.552;-0.848;2023-09-19T11:56:14;6.13;;;2.05;;
42742;SDS011;28397;44.552;-0.848;2023-09-19T11:58:46;5.30;;;2.33;;
42742;SDS011;28397;44.552;-0.848;2023-09-19T12:01:15;7.78;;;2.42;;
42742;SDS011;28397;44.552;-0.848;2023-09-19T12:03:46;5.10;;;2.03;;
42742;SDS011;28397;44.552;-0.848;2023-09-19T12:06:17;5.65;;;1.92;;
42742;SDS011;28397;44.552;-0.848;2023-09-19T12:08:43;5.15;;;1.83;;
42742;SDS011;28397;44.552;-0.848;2023-09-19T12:11:14;6.72;;;2.30;;
42742;SDS011;28397;44.552;-0.848;2023-09-19T12:13:44;4.90;;;1.80;;
42742;SDS011;28397;44.552;-0.848;2023-09-19T12:16:15;6.50;;;2.22;;
42742;SDS011;28397;44.552;-0.848;2023-09-19T12:18:42;6.30;;;2.30;;
42742;SDS011;28397;44.552;-0.848;2023-09-19T12:21:28;5.40;;;2.00;;
42742;SDS011;28397;44.552;-0.848;2023-09-19T12:26:38;4.63;;;2.05;;
42742;SDS011;28397;44.552;-0.848;2023-09-19T12:29:14;6.05;;;2.20;;
42742;SDS011;28397;44.552;-0.848;2023-09-19T12:31:52;4.85;;;2.10;;
42742;SDS011;28397;44.552;-0.848;2023-09-19T12:34:23;5.10;;;2.28;;
42742;SDS011;28397;44.552;-0.848;2023-09-19T12:37:03;6.15;;;2.40;;
42742;SDS011;28397;44.552;-0.848;2023-09-19T12:39:52;7.63;;;2.25;;
42742;SDS011;28397;44.552;-0.848;2023-09-19T12:42:27;6.43;;;2.40;;
42742;SDS011;28397;44.552;-0.848;2023-09-19T12:44:56;4.28;;;2.10;;
42742;SDS011;28397;44.552;-0.848;2023-09-19T12:47:25;5.97;;;1.95;;
42742;SDS011;28397;44.552;-0.848;2023-09-19T12:52:46;5.32;;;2.17;;
42742;SDS011;28397;44.552;-0.848;2023-09-19T12:55:24;4.93;;;2.15;;
42742;SDS011;28397;44.552;-0.848;2023-09-19T12:58:11;9.18;;;2.17;;
42742;SDS011;28397;44.552;-0.848;2023-09-19T13:00:38;5.30;;;2.20;;
42742;SDS011;28397;44.552;-0.848;2023-09-19T13:03:18;6.35;;;2.25;;
42742;SDS011;28397;44.552;-0.848;2023-09-19T13:06:02;4.05;;;2.00;;
42742;SDS011;28397;44.552;-0.848;2023-09-19T13:11:12;6.57;;;2.08;;
42742;SDS011;28397;44.552;-0.848;2023-09-19T13:16:13;6.15;;;2.25;;
42742;SDS011;28397;44.552;-0.848;2023-09-19T13:21:16;4.40;;;2.15;;
42742;SDS011;28397;44.552;-0.848;2023-09-19T13:23:52;5.78;;;2.00;;
42742;SDS011;28397;44.552;-0.848;2023-09-19T13:26:27;5.17;;;1.70;;
42742;SDS011;28397;44.552;-0.848;2023-09-19T13:28:54;5.80;;;1.95;;
42742;SDS011;28397;44.552;-0.848;2023-09-19T13:31:20;4.15;;;1.90;;
42742;SDS011;28397;44.552;-0.848;2023-09-19T13:33:47;4.97;;;1.77;;
42742;SDS011;28397;44.552;-0.848;2023-09-19T13:36:14;5.97;;;1.92;;
42742;SDS011;28397;44.552;-0.848;2023-09-19T13:38:40;5.18;;;1.95;;
42742;SDS011;28397;44.552;-0.848;2023-09-19T13:41:08;5.70;;;2.20;;
42742;SDS011;28397;44.552;-0.848;2023-09-19T13:43:35;6.70;;;1.98;;
42742;SDS011;28397;44.552;-0.848;2023-09-19T13:46:01;7.05;;;2.13;;
42742;SDS011;28397;44.552;-0.848;2023-09-19T13:48:27;4.22;;;1.90;;
42742;SDS011;28397;44.552;-0.848;2023-09-19T13:50:55;5.00;;;2.00;;
42742;SDS011;28397;44.552;-0.848;2023-09-19T13:53:21;7.80;;;2.05;;
42742;SDS011;28397;44.552;-0.848;2023-09-19T13:55:47;4.70;;;2.22;;
42742;SDS011;28397;44.552;-0.848;2023-09-19T13:58:14;4.13;;;2.20;;
42742;SDS011;28397;44.552;-0.848;2023-09-19T14:00:40;5.22;;;2.13;;
42742;SDS011;28397;44.552;-0.848;2023-09-19T14:03:06;4.50;;;1.73;;
42742;SDS011;28397;44.552;-0.848;2023-09-19T14:05:31;6.40;;;1.90;;
42742;SDS011;28397;44.552;-0.848;2023-09-19T14:07:57;8.30;;;2.28;;
42742;SDS011;28397;44.552;-0.848;2023-09-19T14:10:24;7.47;;;2.22;;
42742;SDS011;28397;44.552;-0.848;2023-09-19T14:12:52;5.93;;;1.80;;
42742;SDS011;28397;44.552;-0.848;2023-09-19T14:15:18;5.22;;;2.10;;
42742;SDS011;28397;44.552;-0.848;2023-09-19T14:17:44;5.30;;;2.17;;
42742;SDS011;28397;44.552;-0.848;2023-09-19T14:20:10;3.63;;;1.88;;
42742;SDS011;28397;44.552;-0.848;2023-09-19T14:22:36;3.85;;;1.80;;
42742;SDS011;28397;44.552;-0.848;2023-09-19T14:25:02;3.90;;;1.88;;
42742;SDS011;28397;44.552;-0.848;2023-09-19T14:27:29;3.22;;;1.60;;
42742;SDS011;28397;44.552;-0.848;2023-09-19T14:29:55;3.28;;;1.60;;
42742;SDS011;28397;44.552;-0.848;2023-09-19T14:32:22;4.15;;;1.80;;
42742;SDS011;28397;44.552;-0.848;2023-09-19T14:34:48;3.75;;;1.88;;
42742;SDS011;28397;44.552;-0.848;2023-09-19T14:37:14;5.32;;;1.73;;
42742;SDS011;28397;44.552;-0.848;2023-09-19T14:39:41;2.90;;;1.60;;
42742;SDS011;28397;44.552;-0.848;2023-09-19T14:42:09;4.50;;;1.60;;
42742;SDS011;28397;44.552;-0.848;2023-09-19T14:44:35;7.43;;;2.10;;
42742;SDS011;28397;44.552;-0.848;2023-09-19T14:47:02;5.97;;;1.70;;
42742;SDS011;28397;44.552;-0.848;2023-09-19T14:49:33;4.65;;;1.77;;
42742;SDS011;28397;44.552;-0.848;2023-09-19T14:51:59;4.00;;;1.85;;
42742;SDS011;28397;44.552;-0.848;2023-09-19T14:54:29;6.43;;;1.75;;
42742;SDS011;28397;44.552;-0.848;2023-09-19T14:56:55;4.72;;;2.08;;
42742;SDS011;28397;44.552;-0.848;2023-09-19T14:59:32;3.72;;;2.00;;
42742;SDS011;28397;44.552;-0.848;2023-09-19T15:02:02;7.50;;;1.85;;
42742;SDS011;28397;44.552;-0.848;2023-09-19T15:04:28;7.38;;;2.40;;
42742;SDS011;28397;44.552;-0.848;2023-09-19T15:06:54;5.40;;;2.08;;
42742;SDS011;28397;44.552;-0.848;2023-09-19T15:09:23;4.13;;;1.80;;
42742;SDS011;28397;44.552;-0.848;2023-09-19T15:11:51;7.63;;;2.40;;
42742;SDS011;28397;44.552;-0.848;2023-09-19T15:14:17;5.78;;;2.00;;
42742;SDS011;28397;44.552;-0.848;2023-09-19T15:16:43;7.25;;;2.20;;
42742;SDS011;28397;44.552;-0.848;2023-09-19T15:19:09;4.38;;;1.83;;
42742;SDS011;28397;44.552;-0.848;2023-09-19T15:21:35;5.20;;;2.10;;
42742;SDS011;28397;44.552;-0.848;2023-09-19T15:24:02;4.47;;;2.10;;
42742;SDS011;28397;44.552;-0.848;2023-09-19T15:26:28;5.18;;;1.92;;
42742;SDS011;28397;44.552;-0.848;2023-09-19T15:28:55;4.25;;;1.83;;
42742;SDS011;28397;44.552;-0.848;2023-09-19T15:31:21;2.63;;;1.80;;
42742;SDS011;28397;44.552;-0.848;2023-09-19T15:33:47;6.43;;;2.05;;
42742;SDS011;28397;44.552;-0.848;2023-09-19T15:36:13;4.35;;;2.03;;
42742;SDS011;28397;44.552;-0.848;2023-09-19T15:41:25;5.20;;;1.90;;
42742;SDS011;28397;44.552;-0.848;2023-09-19T15:43:52;5.03;;;1.90;;
42742;SDS011;28397;44.552;-0.848;2023-09-19T15:46:19;7.32;;;2.00;;
42742;SDS011;28397;44.552;-0.848;2023-09-19T15:48:45;6.28;;;1.92;;
42742;SDS011;28397;44.552;-0.848;2023-09-19T15:51:11;3.35;;;1.67;;